createdAt,value
2018-12-24T00:00:26.869Z,22.10
2018-12-24T00:02:54.663Z,22.10
2018-12-24T00:05:22.479Z,22.10
2018-12-24T00:07:50.187Z,22.10
2018-12-24T00:10:17.936Z,22.10
2018-12-24T00:12:45.681Z,22.10
2018-12-24T00:15:13.381Z,22.10
2018-12-24T00:17:41.099Z,22.10
2018-12-24T00:20:08.836Z,22.00
2018-12-24T00:22:36.551Z,22.10
2018-12-24T00:25:04.376Z,22.10
2018-12-24T00:27:32.169Z,22.00
2018-12-24T00:29:59.950Z,22.00
2018-12-24T00:32:27.723Z,22.00
2018-12-24T00:34:55.480Z,22.00
2018-12-24T00:37:23.277Z,22.00
2018-12-24T00:39:50.984Z,22.00
2018-12-24T00:42:18.770Z,22.00
2018-12-24T00:44:46.511Z,22.00
2018-12-24T00:47:14.229Z,22.00
2018-12-24T00:49:41.955Z,22.00
2018-12-24T00:52:09.772Z,22.00
2018-12-24T00:54:37.478Z,22.00
2018-12-24T00:57:05.163Z,22.00
2018-12-24T00:59:32.912Z,22.00
2018-12-24T01:02:00.626Z,22.00
2018-12-24T01:04:28.360Z,22.00
2018-12-24T01:06:56.124Z,22.00
2018-12-24T01:09:23.858Z,22.00
2018-12-24T01:11:51.638Z,22.00
2018-12-24T01:14:19.440Z,22.00
2018-12-24T01:16:47.210Z,22.00
2018-12-24T01:19:14.937Z,22.00
2018-12-24T01:21:42.652Z,22.00
2018-12-24T01:24:10.414Z,22.00
2018-12-24T01:26:38.135Z,22.00
2018-12-24T01:29:05.944Z,22.00
2018-12-24T01:31:33.662Z,22.00
2018-12-24T01:34:01.343Z,22.00
2018-12-24T01:36:29.085Z,22.00
2018-12-24T01:38:56.795Z,22.00
2018-12-24T01:41:24.514Z,22.00
2018-12-24T01:43:52.329Z,22.00
2018-12-24T01:46:20.051Z,22.00
2018-12-24T01:48:47.858Z,22.00
2018-12-24T01:51:15.561Z,22.00
2018-12-24T01:53:43.241Z,22.00
2018-12-24T01:56:10.985Z,22.00
2018-12-24T01:58:38.704Z,22.00
2018-12-24T02:01:06.454Z,22.00
2018-12-24T02:03:34.245Z,22.00
2018-12-24T02:06:02.308Z,22.00
2018-12-24T02:08:30.051Z,22.00
2018-12-24T02:10:57.793Z,22.00
2018-12-24T02:13:25.514Z,22.00
2018-12-24T02:15:53.213Z,22.00
2018-12-24T02:18:20.986Z,22.00
2018-12-24T02:20:48.746Z,22.00
2018-12-24T02:23:16.450Z,22.00
2018-12-24T02:25:44.273Z,22.00
2018-12-24T02:28:11.968Z,21.90
2018-12-24T02:30:39.686Z,22.00
2018-12-24T02:33:07.599Z,21.90
2018-12-24T02:35:35.356Z,21.90
2018-12-24T02:38:03.100Z,21.90
2018-12-24T02:40:30.811Z,22.00
2018-12-24T02:42:58.536Z,22.00
2018-12-24T02:45:26.375Z,21.90
2018-12-24T02:47:54.069Z,21.90
2018-12-24T02:50:21.809Z,21.90
2018-12-24T02:52:49.516Z,21.90
2018-12-24T02:55:17.323Z,21.90
2018-12-24T02:57:45.033Z,21.90
2018-12-24T03:00:12.799Z,21.90
2018-12-24T03:02:40.563Z,21.90
2018-12-24T03:05:08.273Z,21.90
2018-12-24T03:07:36.103Z,21.90
2018-12-24T03:10:04.565Z,21.90
2018-12-24T03:12:32.336Z,21.90
2018-12-24T03:15:00.133Z,21.90
2018-12-24T03:17:27.963Z,21.90
2018-12-24T03:19:55.732Z,21.90
2018-12-24T03:22:23.492Z,21.90
2018-12-24T03:24:51.230Z,21.90
2018-12-24T03:27:19.017Z,21.90
2018-12-24T03:29:46.718Z,21.90
2018-12-24T03:32:14.412Z,21.90
2018-12-24T03:34:42.159Z,21.90
2018-12-24T03:37:09.872Z,21.90
2018-12-24T03:39:37.627Z,21.90
2018-12-24T03:42:05.435Z,21.90
2018-12-24T03:44:33.182Z,21.90
2018-12-24T03:47:00.882Z,21.90
2018-12-24T03:49:28.638Z,21.90
2018-12-24T03:51:56.402Z,22.00
2018-12-24T03:54:24.164Z,21.90
2018-12-24T03:56:51.862Z,21.90
2018-12-24T03:59:19.558Z,21.90
2018-12-24T04:01:47.302Z,21.90
2018-12-24T04:04:14.985Z,21.90
2018-12-24T04:06:42.762Z,21.90
2018-12-24T04:09:10.459Z,21.90
2018-12-24T04:11:38.220Z,21.90
2018-12-24T04:14:06.053Z,21.90
2018-12-24T04:16:33.743Z,21.90
2018-12-24T04:19:01.441Z,21.90
2018-12-24T04:21:29.207Z,21.90
2018-12-24T04:23:56.966Z,21.90
2018-12-24T04:26:24.656Z,21.90
2018-12-24T04:28:52.505Z,21.90
2018-12-24T04:31:20.276Z,21.90
2018-12-24T04:33:47.952Z,21.90
2018-12-24T04:36:15.722Z,21.90
2018-12-24T04:38:43.509Z,21.90
2018-12-24T04:41:11.282Z,21.90
2018-12-24T04:43:39.023Z,21.90
2018-12-24T04:46:06.791Z,21.90
2018-12-24T04:48:34.571Z,21.90
2018-12-24T04:51:02.282Z,21.90
2018-12-24T04:53:30.040Z,21.90
2018-12-24T04:55:57.815Z,21.90
2018-12-24T04:58:25.571Z,21.90
2018-12-24T05:00:53.339Z,21.90
2018-12-24T05:03:21.091Z,21.90
2018-12-24T05:05:48.787Z,21.90
2018-12-24T05:08:16.561Z,21.90
2018-12-24T05:10:44.293Z,21.90
2018-12-24T05:13:12.073Z,21.90
2018-12-24T05:15:39.932Z,21.90
2018-12-24T05:18:07.708Z,21.90
2018-12-24T05:20:35.407Z,21.90
2018-12-24T05:23:03.156Z,21.90
2018-12-24T05:25:30.870Z,21.90
2018-12-24T05:27:58.601Z,21.90
2018-12-24T05:30:26.340Z,21.90
2018-12-24T05:32:54.053Z,21.90
2018-12-24T05:35:21.785Z,21.90
2018-12-24T05:37:49.539Z,21.90
2018-12-24T05:40:17.225Z,21.90
2018-12-24T05:42:44.985Z,21.90
2018-12-24T05:45:12.733Z,21.90
2018-12-24T05:47:40.465Z,21.90
2018-12-24T05:50:08.241Z,21.90
2018-12-24T05:52:35.972Z,21.90
2018-12-24T05:55:03.678Z,21.90
2018-12-24T05:57:31.494Z,21.90
2018-12-24T05:59:59.278Z,21.90
2018-12-24T06:02:27.032Z,21.90
2018-12-24T06:04:54.743Z,21.90
2018-12-24T06:07:22.501Z,21.90
2018-12-24T06:09:50.280Z,21.90
2018-12-24T06:12:18.062Z,21.90
2018-12-24T06:14:45.756Z,21.90
2018-12-24T06:17:13.435Z,21.90
2018-12-24T06:19:41.200Z,21.90
2018-12-24T06:22:08.952Z,21.90
2018-12-24T06:24:36.720Z,21.90
2018-12-24T06:27:04.568Z,21.90
2018-12-24T06:29:32.400Z,21.90
2018-12-24T06:32:00.127Z,21.90
2018-12-24T06:34:27.927Z,21.90
2018-12-24T06:36:55.815Z,21.90
2018-12-24T06:39:23.614Z,21.90
2018-12-24T06:41:51.310Z,21.90
2018-12-24T06:44:19.076Z,21.90
2018-12-24T06:46:46.885Z,21.90
2018-12-24T06:49:14.590Z,21.90
2018-12-24T06:51:42.354Z,21.90
2018-12-24T06:54:10.079Z,21.90
2018-12-24T06:56:37.787Z,22.00
2018-12-24T06:59:05.537Z,22.00
2018-12-24T07:01:33.232Z,22.10
2018-12-24T07:04:00.990Z,22.20
2018-12-24T07:06:28.694Z,22.20
2018-12-24T07:08:56.476Z,22.30
2018-12-24T07:11:24.233Z,22.50
2018-12-24T07:13:51.942Z,22.50
2018-12-24T07:16:19.690Z,22.50
2018-12-24T07:18:47.434Z,22.40
2018-12-24T07:21:15.134Z,22.40
2018-12-24T07:23:42.831Z,22.40
2018-12-24T07:26:10.671Z,22.40
2018-12-24T07:28:38.538Z,22.40
2018-12-24T07:31:06.484Z,22.40
2018-12-24T07:33:34.412Z,22.40
2018-12-24T07:36:02.114Z,22.40
2018-12-24T07:38:29.895Z,22.40
2018-12-24T07:40:57.807Z,22.40
2018-12-24T07:43:25.503Z,22.40
2018-12-24T07:45:53.281Z,22.50
2018-12-24T07:48:21.010Z,22.40
2018-12-24T07:50:48.782Z,22.40
2018-12-24T07:53:16.609Z,22.50
2018-12-24T07:55:44.388Z,22.40
2018-12-24T07:58:12.173Z,22.40
2018-12-24T08:00:39.911Z,22.40
2018-12-24T08:03:07.636Z,22.30
2018-12-24T08:05:35.350Z,22.30
2018-12-24T08:08:03.078Z,22.30
2018-12-24T08:10:30.813Z,22.30
2018-12-24T08:12:58.599Z,22.30
2018-12-24T08:15:26.627Z,22.30
2018-12-24T08:17:54.326Z,22.30
2018-12-24T08:20:22.013Z,22.40
2018-12-24T08:22:49.753Z,22.40
2018-12-24T08:25:17.464Z,22.50
2018-12-24T08:27:45.256Z,22.60
2018-12-24T08:30:13.030Z,22.60
2018-12-24T08:32:40.754Z,22.50
2018-12-24T08:35:08.559Z,22.50
2018-12-24T08:37:36.339Z,22.60
2018-12-24T08:40:04.156Z,22.60
2018-12-24T08:42:32.006Z,22.50
2018-12-24T08:44:59.755Z,22.50
2018-12-24T08:47:27.456Z,22.60
2018-12-24T08:49:55.145Z,22.60
2018-12-24T08:52:22.911Z,22.70
2018-12-24T08:54:50.645Z,22.80
2018-12-24T08:57:18.415Z,22.90
2018-12-24T08:59:46.177Z,22.80
2018-12-24T09:02:14.012Z,22.30
2018-12-24T09:04:41.835Z,21.80
2018-12-24T09:07:12.039Z,21.60
2018-12-24T09:09:39.855Z,21.10
2018-12-24T09:12:07.628Z,20.70
2018-12-24T09:14:35.400Z,20.60
2018-12-24T09:17:03.162Z,20.70
2018-12-24T09:19:30.893Z,20.70
2018-12-24T09:21:58.671Z,20.30
2018-12-24T09:24:26.419Z,20.10
2018-12-24T09:26:54.216Z,20.00
2018-12-24T09:29:22.078Z,19.90
2018-12-24T09:31:49.873Z,19.90
2018-12-24T09:34:17.646Z,19.90
2018-12-24T09:36:45.436Z,19.80
2018-12-24T09:39:13.250Z,19.80
2018-12-24T09:41:41.028Z,19.50
2018-12-24T09:44:08.980Z,19.30
2018-12-24T09:46:36.696Z,19.30
2018-12-24T09:49:04.463Z,19.50
2018-12-24T09:51:32.350Z,19.50
2018-12-24T09:54:00.228Z,19.50
2018-12-24T09:56:27.991Z,19.20
2018-12-24T09:58:56.238Z,19.20
2018-12-24T10:01:24.014Z,19.30
2018-12-24T10:03:51.923Z,19.50
2018-12-24T10:06:19.774Z,19.80
2018-12-24T10:08:47.598Z,20.10
2018-12-24T10:11:15.384Z,20.30
2018-12-24T10:13:43.182Z,20.50
2018-12-24T10:16:10.937Z,20.70
2018-12-24T10:18:38.686Z,20.80
2018-12-24T10:21:06.494Z,20.90
2018-12-24T10:23:34.214Z,21.00
2018-12-24T10:26:02.086Z,21.10
2018-12-24T10:28:29.987Z,21.20
2018-12-24T10:30:57.680Z,21.30
2018-12-24T10:33:25.453Z,21.40
2018-12-24T10:35:53.166Z,21.40
2018-12-24T10:38:20.929Z,21.40
2018-12-24T10:40:50.010Z,21.50
2018-12-24T10:43:17.739Z,21.50
2018-12-24T10:45:45.546Z,21.60
2018-12-24T10:48:13.347Z,21.60
2018-12-24T10:50:41.184Z,21.70
2018-12-24T10:53:08.872Z,21.70
2018-12-24T10:55:36.598Z,21.80
2018-12-24T10:58:04.426Z,21.90
2018-12-24T11:00:32.162Z,22.00
2018-12-24T11:02:59.891Z,22.00
2018-12-24T11:05:27.726Z,22.00
2018-12-24T11:07:55.443Z,21.90
2018-12-24T11:10:23.235Z,21.90
2018-12-24T11:12:51.031Z,21.90
2018-12-24T11:15:25.089Z,21.90
2018-12-24T11:17:48.361Z,22.00
2018-12-24T11:20:16.156Z,21.90
2018-12-24T11:22:43.948Z,21.90
2018-12-24T11:25:11.738Z,21.90
2018-12-24T11:27:39.422Z,21.90
2018-12-24T11:30:07.204Z,21.80
2018-12-24T11:32:34.914Z,21.80
2018-12-24T11:35:02.650Z,21.90
2018-12-24T11:37:30.524Z,21.90
2018-12-24T11:39:58.262Z,21.90
2018-12-24T11:42:26.186Z,21.90
2018-12-24T11:44:54.050Z,21.90
2018-12-24T11:47:21.760Z,22.00
2018-12-24T11:49:49.638Z,22.00
2018-12-24T11:52:17.469Z,22.00
2018-12-24T11:54:50.404Z,22.00
2018-12-24T11:57:18.119Z,22.00
2018-12-24T11:59:45.942Z,22.00
2018-12-24T12:02:13.629Z,22.00
2018-12-24T12:04:41.328Z,22.00
2018-12-24T12:07:09.146Z,22.00
2018-12-24T12:09:36.906Z,22.00
2018-12-24T12:12:04.679Z,22.00
2018-12-24T12:14:32.637Z,22.00
2018-12-24T12:17:00.520Z,22.00
2018-12-24T12:19:28.320Z,22.10
2018-12-24T12:21:56.150Z,22.00
2018-12-24T12:24:23.961Z,22.10
2018-12-24T12:26:51.735Z,22.10
2018-12-24T12:29:19.461Z,22.10
2018-12-24T12:31:47.332Z,22.10
2018-12-24T12:34:15.266Z,22.10
2018-12-24T12:36:43.082Z,22.10
2018-12-24T12:39:13.151Z,22.10
2018-12-24T12:41:41.250Z,22.10
2018-12-24T12:44:09.047Z,22.10
2018-12-24T12:46:36.833Z,22.10
2018-12-24T12:49:04.619Z,22.10
2018-12-24T12:51:32.392Z,22.10
2018-12-24T12:54:00.421Z,22.20
2018-12-24T12:56:28.203Z,22.20
2018-12-24T12:58:56.016Z,22.10
2018-12-24T13:01:23.874Z,22.10
2018-12-24T13:03:51.567Z,22.10
2018-12-24T13:06:19.301Z,22.20
2018-12-24T13:08:47.177Z,22.30
2018-12-24T13:11:14.961Z,22.20
2018-12-24T13:13:42.739Z,22.20
2018-12-24T13:16:10.679Z,22.20
2018-12-24T13:18:38.453Z,22.20
2018-12-24T13:21:06.159Z,22.20
2018-12-24T13:23:33.923Z,22.20
2018-12-24T13:26:01.715Z,22.20
2018-12-24T13:28:29.511Z,22.20
2018-12-24T13:30:57.351Z,22.10
2018-12-24T13:33:25.063Z,22.10
2018-12-24T13:35:52.864Z,22.10
2018-12-24T13:38:20.629Z,22.10
2018-12-24T13:40:48.460Z,22.10
2018-12-24T13:43:16.251Z,22.10
2018-12-24T13:45:44.011Z,22.00
2018-12-24T13:48:11.724Z,22.00
2018-12-24T13:51:18.053Z,22.00
2018-12-24T13:53:45.699Z,22.00
2018-12-24T13:56:13.389Z,22.00
2018-12-24T13:58:41.043Z,22.00
2018-12-24T14:01:08.664Z,22.00
2018-12-24T14:03:36.311Z,22.00
2018-12-24T14:06:04.029Z,22.00
2018-12-24T14:08:31.741Z,22.00
2018-12-24T14:10:59.392Z,22.00
2018-12-24T14:13:27.065Z,22.00
2018-12-24T14:15:54.738Z,22.00
2018-12-24T14:18:22.440Z,22.00
2018-12-24T14:20:50.221Z,22.00
2018-12-24T14:23:17.832Z,22.00
2018-12-24T14:25:45.508Z,21.90
2018-12-24T14:28:13.513Z,22.00
2018-12-24T14:30:41.155Z,22.00
2018-12-24T14:33:08.910Z,21.90
2018-12-24T14:35:36.550Z,21.90
2018-12-24T14:38:04.186Z,21.90
2018-12-24T14:40:32.024Z,21.90
2018-12-24T14:42:59.700Z,21.90
2018-12-24T14:45:27.355Z,21.90
2018-12-24T14:47:55.008Z,21.90
2018-12-24T14:50:22.700Z,21.90
2018-12-24T14:52:50.397Z,21.90
2018-12-24T14:55:18.056Z,21.90
2018-12-24T14:57:45.683Z,21.90
2018-12-24T15:00:16.616Z,21.90
2018-12-24T15:02:44.327Z,21.90
2018-12-24T15:05:12.025Z,21.90
2018-12-24T15:07:39.647Z,21.90
2018-12-24T15:10:07.244Z,21.90
2018-12-24T15:12:35.032Z,21.90
2018-12-24T15:15:02.676Z,22.00
2018-12-24T15:17:30.376Z,22.00
2018-12-24T15:19:58.086Z,22.10
2018-12-24T15:22:25.686Z,22.10
2018-12-24T15:24:53.302Z,22.10
2018-12-24T15:27:21.022Z,22.10
2018-12-24T15:29:48.620Z,22.20
2018-12-24T15:32:16.244Z,22.30
2018-12-24T15:34:43.964Z,22.30
2018-12-24T15:37:11.624Z,22.30
2018-12-24T15:39:39.217Z,22.30
2018-12-24T15:42:06.904Z,22.30
2018-12-24T15:44:34.671Z,22.40
2018-12-24T15:47:02.370Z,22.40
2018-12-24T15:49:30.007Z,22.50
2018-12-24T15:51:57.672Z,22.50
2018-12-24T15:54:25.348Z,22.60
2018-12-24T15:56:53.072Z,22.60
2018-12-24T15:59:20.758Z,22.60
2018-12-24T16:01:48.415Z,22.70
2018-12-24T16:04:16.192Z,22.60
2018-12-24T16:06:43.825Z,22.70
2018-12-24T16:09:11.505Z,22.70
2018-12-24T16:11:39.200Z,22.80
2018-12-24T16:14:06.824Z,23.00
2018-12-24T16:16:34.420Z,23.20
2018-12-24T16:19:02.132Z,23.30
2018-12-24T16:21:29.862Z,23.50
2018-12-24T16:23:57.452Z,23.50
2018-12-24T16:26:25.083Z,23.60
2018-12-24T16:28:52.718Z,23.70
2018-12-24T16:31:20.302Z,23.90
2018-12-24T16:33:47.948Z,24.00
2018-12-24T16:36:15.570Z,24.20
2018-12-24T16:38:43.240Z,24.30
2018-12-24T16:41:10.833Z,24.10
2018-12-24T16:43:38.507Z,23.90
2018-12-24T16:46:06.162Z,23.80
2018-12-24T16:48:33.811Z,23.70
2018-12-24T16:51:01.423Z,23.60
2018-12-24T16:53:31.040Z,23.60
2018-12-24T16:55:58.649Z,23.50
2018-12-24T16:58:26.366Z,23.50
2018-12-24T17:00:54.001Z,23.50
2018-12-24T17:03:21.601Z,23.50
2018-12-24T17:05:49.247Z,23.50
2018-12-24T17:08:16.887Z,23.40
2018-12-24T17:10:44.503Z,23.40
2018-12-24T17:13:12.198Z,23.40
2018-12-24T17:15:39.845Z,23.40
2018-12-24T17:18:07.550Z,23.30
2018-12-24T17:20:35.294Z,23.40
2018-12-24T17:23:02.899Z,23.40
2018-12-24T17:25:30.519Z,23.30
2018-12-24T17:27:58.203Z,23.20
2018-12-24T17:30:25.860Z,23.10
2018-12-24T17:32:53.475Z,23.10
2018-12-24T17:35:21.138Z,23.00
2018-12-24T17:37:48.788Z,22.90
2018-12-24T17:40:16.401Z,22.90
2018-12-24T17:42:44.148Z,22.90
2018-12-24T17:45:11.843Z,22.80
2018-12-24T17:47:39.512Z,22.80
2018-12-24T17:50:07.249Z,22.90
2018-12-24T17:52:34.859Z,22.80
2018-12-24T17:55:02.499Z,22.80
2018-12-24T17:57:30.185Z,22.80
2018-12-24T17:59:57.801Z,22.80
2018-12-24T18:02:25.387Z,22.80
2018-12-24T18:04:53.225Z,22.80
2018-12-24T18:07:20.819Z,22.90
2018-12-24T18:09:48.411Z,22.90
2018-12-24T18:12:16.082Z,22.90
2018-12-24T18:14:43.695Z,22.90
2018-12-24T18:17:11.352Z,22.90
2018-12-24T18:19:38.980Z,22.90
2018-12-24T18:22:06.606Z,22.90
2018-12-24T18:24:34.295Z,22.90
2018-12-24T18:27:02.651Z,22.90
2018-12-24T18:29:30.965Z,22.90
2018-12-24T18:31:59.427Z,22.90
2018-12-24T18:34:27.740Z,22.90
2018-12-24T18:36:56.043Z,22.90
2018-12-24T18:39:24.343Z,22.90
2018-12-24T18:41:51.939Z,22.90
2018-12-24T18:44:19.585Z,22.90
2018-12-24T18:46:47.168Z,22.90
2018-12-24T18:49:14.823Z,22.80
2018-12-24T18:51:43.214Z,22.70
2018-12-24T18:54:12.541Z,22.70
2018-12-24T18:56:40.879Z,22.70
2018-12-24T18:59:08.542Z,22.70
2018-12-24T19:01:36.148Z,22.70
2018-12-24T19:04:03.818Z,22.70
2018-12-24T19:06:31.407Z,22.60
2018-12-24T19:08:58.997Z,22.50
2018-12-24T19:11:26.702Z,22.40
2018-12-24T19:13:54.294Z,22.30
2018-12-24T19:16:21.942Z,22.30
2018-12-24T19:18:49.622Z,22.30
2018-12-24T19:21:17.330Z,22.30
2018-12-24T19:23:45.873Z,22.30
2018-12-24T19:26:14.429Z,22.50
2018-12-24T19:28:42.801Z,22.70
2018-12-24T19:31:10.572Z,22.70
2018-12-24T19:33:39.008Z,22.60
2018-12-24T19:36:07.408Z,22.50
2018-12-24T19:38:35.770Z,22.30
2018-12-24T19:41:03.478Z,22.00
2018-12-24T19:43:31.297Z,21.80
2018-12-24T19:45:58.951Z,21.80
2018-12-24T19:48:27.259Z,21.80
2018-12-24T19:50:54.931Z,21.80
2018-12-24T19:53:22.583Z,21.70
2018-12-24T19:55:50.283Z,21.70
2018-12-24T19:58:17.947Z,21.70
2018-12-24T20:03:17.801Z,21.40
2018-12-24T20:05:46.167Z,21.40
2018-12-24T20:08:14.169Z,21.30
2018-12-24T20:10:41.870Z,21.40
2018-12-24T20:13:09.687Z,21.30
2018-12-24T20:15:37.381Z,21.30
2018-12-24T20:18:05.047Z,21.20
2018-12-24T20:20:42.763Z,21.30
2018-12-24T20:23:11.652Z,21.30
2018-12-24T20:25:39.351Z,21.10
2018-12-24T20:28:07.354Z,20.90
2018-12-24T20:30:35.058Z,20.80
2018-12-24T20:33:02.884Z,20.80
2018-12-24T20:35:30.490Z,20.90
2018-12-24T20:37:58.121Z,21.10
2018-12-24T20:40:25.862Z,21.20
2018-12-24T20:42:53.561Z,21.30
2018-12-24T20:45:21.282Z,21.40
2018-12-24T20:47:48.908Z,21.40
2018-12-24T20:50:16.676Z,21.50
2018-12-24T20:52:44.342Z,21.60
2018-12-24T20:55:11.982Z,21.60
2018-12-24T20:57:40.947Z,21.70
2018-12-24T21:00:09.561Z,21.70
2018-12-24T21:02:37.280Z,21.70
2018-12-24T21:05:05.817Z,21.80
2018-12-24T21:07:33.676Z,21.80
2018-12-24T21:10:01.373Z,21.80
2018-12-24T21:12:29.056Z,21.80
2018-12-24T21:14:56.896Z,21.90
2018-12-24T21:17:24.631Z,21.90
2018-12-24T21:19:52.225Z,21.90
2018-12-24T21:22:19.814Z,21.90
2018-12-24T21:24:47.463Z,21.90
2018-12-24T21:27:15.104Z,21.90
2018-12-24T21:29:42.750Z,22.00
2018-12-24T21:32:10.404Z,22.00
2018-12-24T21:34:38.055Z,22.00
2018-12-24T21:37:05.710Z,22.00
2018-12-24T21:39:33.372Z,22.00
2018-12-24T21:42:00.969Z,22.00
2018-12-24T21:44:28.693Z,22.00
2018-12-24T21:46:56.281Z,22.00
2018-12-24T21:49:23.911Z,22.00
2018-12-24T21:51:51.606Z,22.00
2018-12-24T21:54:20.591Z,22.00
2018-12-24T21:56:48.492Z,22.00
2018-12-24T21:59:16.294Z,22.00
2018-12-24T22:01:43.958Z,22.00
2018-12-24T22:04:11.589Z,22.00
2018-12-24T22:06:40.035Z,22.00
2018-12-24T22:09:07.806Z,22.00
2018-12-24T22:11:36.266Z,22.00
2018-12-24T22:14:04.023Z,22.00
2018-12-24T22:16:31.736Z,22.00
2018-12-24T22:19:00.232Z,22.00
2018-12-24T22:21:27.882Z,22.00
2018-12-24T22:23:55.559Z,22.00
2018-12-24T22:26:23.264Z,22.00
2018-12-24T22:28:50.917Z,22.00
2018-12-24T22:31:18.692Z,22.00
2018-12-24T22:33:46.520Z,22.00
2018-12-24T22:36:14.186Z,22.00
2018-12-24T22:38:42.596Z,22.00
2018-12-24T22:41:10.343Z,22.00
2018-12-24T22:43:38.066Z,22.00
2018-12-24T22:46:05.871Z,22.00
2018-12-24T22:48:40.469Z,22.00
2018-12-24T22:51:02.872Z,22.00
2018-12-24T22:53:30.542Z,22.00
2018-12-24T22:55:58.192Z,22.00
2018-12-24T22:58:26.548Z,22.10
2018-12-24T23:00:54.380Z,22.10
2018-12-24T23:03:22.073Z,22.10
2018-12-24T23:05:50.460Z,22.10
2018-12-24T23:08:18.298Z,22.10
2018-12-24T23:10:46.642Z,22.10
2018-12-24T23:15:53.190Z,22.10
2018-12-24T23:18:20.874Z,22.10
2018-12-24T23:20:49.496Z,22.00
2018-12-24T23:23:17.204Z,22.00
2018-12-24T23:25:44.866Z,22.10
2018-12-24T23:28:12.466Z,22.10
2018-12-24T23:30:40.217Z,22.00
2018-12-24T23:33:08.629Z,22.10
2018-12-24T23:35:36.505Z,22.10
2018-12-24T23:38:05.022Z,22.10
2018-12-24T23:40:32.869Z,22.00
2018-12-24T23:43:00.632Z,22.10
2018-12-24T23:45:29.026Z,22.10
2018-12-24T23:47:57.357Z,22.10
2018-12-24T23:50:25.141Z,22.10
2018-12-24T23:52:52.943Z,22.10
2018-12-24T23:55:20.945Z,22.10
2018-12-24T23:57:48.731Z,22.00
